sensor_id;sensor_type;location;lat;lon;timestamp;pressure;altitude;pressure_sealevel;temperature;humidity
41218;BME280;26950;50.960;7.138;2023-04-05T00:01:23;101353.09;;;8.68;38.19
41218;BME280;26950;50.960;7.138;2023-04-05T00:03:50;101357.63;;;8.72;38.53
41218;BME280;26950;50.960;7.138;2023-04-05T00:06:18;101347.72;;;8.64;38.31
41218;BME280;26950;50.960;7.138;2023-04-05T00:08:46;101349.63;;;8.49;38.16
41218;BME280;26950;50.960;7.138;2023-04-05T00:11:15;101350.34;;;8.47;37.91
41218;BME280;26950;50.960;7.138;2023-04-05T00:13:42;101342.84;;;8.54;38.11
41218;BME280;26950;50.960;7.138;2023-04-05T00:16:08;101332.31;;;8.35;38.72
41218;BME280;26950;50.960;7.138;2023-04-05T00:18:35;101335.47;;;8.46;38.27
41218;BME280;26950;50.960;7.138;2023-04-05T00:21:02;101340.41;;;8.40;38.20
41218;BME280;26950;50.960;7.138;2023-04-05T00:23:30;101340.66;;;8.44;38.11
41218;BME280;26950;50.960;7.138;2023-04-05T00:26:04;101337.91;;;8.60;38.00
41218;BME280;26950;50.960;7.138;2023-04-05T00:28:32;101337.53;;;8.71;37.84
41218;BME280;26950;50.960;7.138;2023-04-05T00:30:58;101335.59;;;8.67;37.60
41218;BME280;26950;50.960;7.138;2023-04-05T00:33:25;101326.94;;;8.68;37.71
41218;BME280;26950;50.960;7.138;2023-04-05T00:35:51;101328.34;;;8.61;37.71
41218;BME280;26950;50.960;7.138;2023-04-05T00:38:18;101331.34;;;8.69;37.96
41218;BME280;26950;50.960;7.138;2023-04-05T00:40:44;101333.13;;;8.70;37.55
41218;BME280;26950;50.960;7.138;2023-04-05T00:43:11;101329.06;;;8.57;37.55
41218;BME280;26950;50.960;7.138;2023-04-05T00:45:38;101316.88;;;8.57;37.76
41218;BME280;26950;50.960;7.138;2023-04-05T00:48:05;101334.38;;;8.78;37.56
41218;BME280;26950;50.960;7.138;2023-04-05T00:50:32;101331.09;;;8.82;37.42
41218;BME280;26950;50.960;7.138;2023-04-05T00:52:59;101335.59;;;8.67;37.52
41218;BME280;26950;50.960;7.138;2023-04-05T00:55:26;101335.56;;;8.84;37.32
41218;BME280;26950;50.960;7.138;2023-04-05T00:57:52;101338.22;;;8.67;37.30
41218;BME280;26950;50.960;7.138;2023-04-05T01:00:20;101331.91;;;8.61;37.43
41218;BME280;26950;50.960;7.138;2023-04-05T01:02:51;101330.84;;;8.58;37.66
41218;BME280;26950;50.960;7.138;2023-04-05T01:05:32;101334.09;;;8.72;37.54
41218;BME280;26950;50.960;7.138;2023-04-05T01:08:07;101325.41;;;8.73;37.67
41218;BME280;26950;50.960;7.138;2023-04-05T01:10:38;101328.56;;;8.65;37.75
41218;BME280;26950;50.960;7.138;2023-04-05T01:13:07;101327.38;;;8.59;37.94
41218;BME280;26950;50.960;7.138;2023-04-05T01:15:34;101318.25;;;8.69;37.71
41218;BME280;26950;50.960;7.138;2023-04-05T01:18:02;101310.50;;;8.52;37.90
41218;BME280;26950;50.960;7.138;2023-04-05T01:20:32;101309.00;;;8.57;37.83
41218;BME280;26950;50.960;7.138;2023-04-05T01:23:20;101316.56;;;8.51;37.85
41218;BME280;26950;50.960;7.138;2023-04-05T01:26:27;101316.47;;;8.68;37.83
41218;BME280;26950;50.960;7.138;2023-04-05T01:31:59;101312.75;;;8.27;38.19
41218;BME280;26950;50.960;7.138;2023-04-05T01:34:34;101317.81;;;8.59;37.79
41218;BME280;26950;50.960;7.138;2023-04-05T01:37:07;101321.56;;;8.29;38.33
41218;BME280;26950;50.960;7.138;2023-04-05T01:39:36;101316.50;;;8.50;38.19
41218;BME280;26950;50.960;7.138;2023-04-05T01:42:04;101322.47;;;8.47;38.32
41218;BME280;26950;50.960;7.138;2023-04-05T01:44:31;101317.09;;;8.44;38.12
41218;BME280;26950;50.960;7.138;2023-04-05T01:46:58;101310.22;;;8.46;37.99
41218;BME280;26950;50.960;7.138;2023-04-05T01:49:25;101313.78;;;8.48;38.19
41218;BME280;26950;50.960;7.138;2023-04-05T01:51:51;101312.31;;;8.18;38.46
41218;BME280;26950;50.960;7.138;2023-04-05T01:54:18;101308.19;;;8.23;38.53
41218;BME280;26950;50.960;7.138;2023-04-05T01:56:44;101309.81;;;8.37;38.24
41218;BME280;26950;50.960;7.138;2023-04-05T01:59:11;101297.97;;;8.45;38.43
41218;BME280;26950;50.960;7.138;2023-04-05T02:01:37;101305.25;;;8.34;38.51
41218;BME280;26950;50.960;7.138;2023-04-05T02:04:05;101297.88;;;8.26;38.40
41218;BME280;26950;50.960;7.138;2023-04-05T02:06:31;101303.06;;;8.24;38.52
41218;BME280;26950;50.960;7.138;2023-04-05T02:08:58;101301.09;;;8.20;38.78
41218;BME280;26950;50.960;7.138;2023-04-05T02:11:24;101303.94;;;8.25;38.63
41218;BME280;26950;50.960;7.138;2023-04-05T02:13:51;101303.34;;;8.13;38.97
41218;BME280;26950;50.960;7.138;2023-04-05T02:16:17;101294.69;;;8.14;38.78
41218;BME280;26950;50.960;7.138;2023-04-05T02:18:44;101300.28;;;8.03;39.26
41218;BME280;26950;50.960;7.138;2023-04-05T02:21:16;101294.50;;;8.10;39.02
41218;BME280;26950;50.960;7.138;2023-04-05T02:23:42;101292.31;;;8.18;39.51
41218;BME280;26950;50.960;7.138;2023-04-05T02:26:09;101296.00;;;8.23;39.33
41218;BME280;26950;50.960;7.138;2023-04-05T02:28:35;101300.97;;;8.17;39.52
41218;BME280;26950;50.960;7.138;2023-04-05T02:31:07;101300.56;;;8.09;39.37
41218;BME280;26950;50.960;7.138;2023-04-05T02:33:34;101300.66;;;7.93;40.09
41218;BME280;26950;50.960;7.138;2023-04-05T02:36:03;101293.78;;;7.77;40.25
41218;BME280;26950;50.960;7.138;2023-04-05T02:38:31;101289.16;;;7.90;40.04
41218;BME280;26950;50.960;7.138;2023-04-05T02:40:57;101297.97;;;7.74;40.79
41218;BME280;26950;50.960;7.138;2023-04-05T02:43:24;101297.13;;;7.75;40.71
41218;BME280;26950;50.960;7.138;2023-04-05T02:45:50;101301.25;;;7.53;40.71
41218;BME280;26950;50.960;7.138;2023-04-05T02:48:17;101297.66;;;7.68;40.87
41218;BME280;26950;50.960;7.138;2023-04-05T02:50:46;101295.56;;;7.61;41.19
41218;BME280;26950;50.960;7.138;2023-04-05T02:53:13;101286.22;;;7.66;40.85
41218;BME280;26950;50.960;7.138;2023-04-05T02:55:40;101286.69;;;7.75;41.09
41218;BME280;26950;50.960;7.138;2023-04-05T02:58:07;101286.38;;;7.69;41.35
41218;BME280;26950;50.960;7.138;2023-04-05T03:00:34;101288.69;;;7.63;42.12
41218;BME280;26950;50.960;7.138;2023-04-05T03:03:00;101285.56;;;7.70;42.36
41218;BME280;26950;50.960;7.138;2023-04-05T03:05:27;101289.66;;;7.65;41.97
41218;BME280;26950;50.960;7.138;2023-04-05T03:07:54;101286.59;;;7.55;41.97
41218;BME280;26950;50.960;7.138;2023-04-05T03:10:20;101292.41;;;7.50;42.40
41218;BME280;26950;50.960;7.138;2023-04-05T03:12:50;101287.25;;;7.51;42.49
41218;BME280;26950;50.960;7.138;2023-04-05T03:15:17;101287.88;;;7.47;42.77
41218;BME280;26950;50.960;7.138;2023-04-05T03:17:43;101290.69;;;7.34;43.18
41218;BME280;26950;50.960;7.138;2023-04-05T03:20:11;101283.38;;;7.27;43.46
41218;BME280;26950;50.960;7.138;2023-04-05T03:22:38;101285.97;;;7.27;43.47
41218;BME280;26950;50.960;7.138;2023-04-05T03:25:06;101282.97;;;7.19;43.46
41218;BME280;26950;50.960;7.138;2023-04-05T03:27:32;101276.63;;;7.14;43.39
41218;BME280;26950;50.960;7.138;2023-04-05T03:30:00;101290.06;;;7.22;44.00
41218;BME280;26950;50.960;7.138;2023-04-05T03:32:26;101287.69;;;7.26;43.70
41218;BME280;26950;50.960;7.138;2023-04-05T03:34:53;101288.13;;;7.18;44.10
41218;BME280;26950;50.960;7.138;2023-04-05T03:37:19;101289.75;;;7.16;44.22
41218;BME280;26950;50.960;7.138;2023-04-05T03:39:46;101286.22;;;7.15;44.36
41218;BME280;26950;50.960;7.138;2023-04-05T03:42:12;101282.91;;;7.18;44.39
41218;BME280;26950;50.960;7.138;2023-04-05T03:44:40;101286.03;;;7.11;44.56
41218;BME280;26950;50.960;7.138;2023-04-05T03:47:08;101287.63;;;7.09;44.68
41218;BME280;26950;50.960;7.138;2023-04-05T03:49:35;101292.53;;;7.02;44.87
41218;BME280;26950;50.960;7.138;2023-04-05T03:52:01;101279.41;;;7.01;44.91
41218;BME280;26950;50.960;7.138;2023-04-05T03:54:27;101269.47;;;6.94;45.00
41218;BME280;26950;50.960;7.138;2023-04-05T03:56:54;101273.94;;;6.96;45.41
41218;BME280;26950;50.960;7.138;2023-04-05T03:59:20;101274.50;;;6.91;44.52
41218;BME280;26950;50.960;7.138;2023-04-05T04:01:47;101271.19;;;6.93;44.72
41218;BME280;26950;50.960;7.138;2023-04-05T04:04:15;101268.06;;;6.84;44.40
41218;BME280;26950;50.960;7.138;2023-04-05T04:06:41;101274.28;;;6.86;44.95
41218;BME280;26950;50.960;7.138;2023-04-05T04:09:08;101269.06;;;6.86;45.32
41218;BME280;26950;50.960;7.138;2023-04-05T04:11:35;101270.59;;;6.83;45.42
41218;BME280;26950;50.960;7.138;2023-04-05T04:14:01;101270.34;;;6.78;45.85
41218;BME280;26950;50.960;7.138;2023-04-05T04:16:28;101266.69;;;6.74;45.98
41218;BME280;26950;50.960;7.138;2023-04-05T04:18:54;101266.84;;;6.78;45.80
41218;BME280;26950;50.960;7.138;2023-04-05T04:21:22;101263.28;;;6.75;45.56
41218;BME280;26950;50.960;7.138;2023-04-05T04:23:49;101269.31;;;6.74;45.12
41218;BME280;26950;50.960;7.138;2023-04-05T04:26:16;101277.69;;;6.69;45.22
41218;BME280;26950;50.960;7.138;2023-04-05T04:28:53;101272.22;;;6.64;45.32
41218;BME280;26950;50.960;7.138;2023-04-05T04:31:19;101270.34;;;6.62;44.91
41218;BME280;26950;50.960;7.138;2023-04-05T04:33:48;101266.41;;;6.54;44.78
41218;BME280;26950;50.960;7.138;2023-04-05T04:36:15;101262.13;;;6.54;45.39
41218;BME280;26950;50.960;7.138;2023-04-05T04:39:00;101260.97;;;6.49;45.40
41218;BME280;26950;50.960;7.138;2023-04-05T04:41:29;101271.69;;;6.39;46.36
41218;BME280;26950;50.960;7.138;2023-04-05T04:43:58;101273.41;;;6.38;45.80
41218;BME280;26950;50.960;7.138;2023-04-05T04:46:27;101270.72;;;6.37;46.55
41218;BME280;26950;50.960;7.138;2023-04-05T04:48:55;101267.31;;;6.38;46.38
41218;BME280;26950;50.960;7.138;2023-04-05T04:51:22;101269.09;;;6.39;46.20
41218;BME280;26950;50.960;7.138;2023-04-05T04:53:48;101271.78;;;6.40;46.37
41218;BME280;26950;50.960;7.138;2023-04-05T04:56:16;101270.53;;;6.34;46.62
41218;BME280;26950;50.960;7.138;2023-04-05T04:58:43;101275.69;;;6.32;46.49
41218;BME280;26950;50.960;7.138;2023-04-05T05:01:09;101284.31;;;6.31;46.49
41218;BME280;26950;50.960;7.138;2023-04-05T05:03:36;101284.41;;;6.33;46.62
41218;BME280;26950;50.960;7.138;2023-04-05T05:06:03;101283.34;;;6.29;46.54
41218;BME280;26950;50.960;7.138;2023-04-05T05:08:30;101277.53;;;6.18;46.90
41218;BME280;26950;50.960;7.138;2023-04-05T05:10:57;101270.53;;;6.17;46.65
41218;BME280;26950;50.960;7.138;2023-04-05T05:13:25;101275.63;;;6.16;47.03
41218;BME280;26950;50.960;7.138;2023-04-05T05:15:51;101282.13;;;6.22;46.95
41218;BME280;26950;50.960;7.138;2023-04-05T05:18:18;101275.81;;;6.19;46.71
41218;BME280;26950;50.960;7.138;2023-04-05T05:20:49;101277.19;;;6.12;46.91
41218;BME280;26950;50.960;7.138;2023-04-05T05:23:15;101284.03;;;6.10;47.02
41218;BME280;26950;50.960;7.138;2023-04-05T05:25:42;101286.06;;;6.16;46.99
41218;BME280;26950;50.960;7.138;2023-04-05T05:28:08;101280.22;;;6.20;47.03
41218;BME280;26950;50.960;7.138;2023-04-05T05:30:36;101274.19;;;6.21;46.79
41218;BME280;26950;50.960;7.138;2023-04-05T05:33:03;101273.56;;;6.25;46.55
41218;BME280;26950;50.960;7.138;2023-04-05T05:35:29;101273.81;;;6.30;46.82
41218;BME280;26950;50.960;7.138;2023-04-05T05:37:56;101273.00;;;6.31;47.26
41218;BME280;26950;50.960;7.138;2023-04-05T05:40:22;101273.16;;;6.34;47.34
41218;BME280;26950;50.960;7.138;2023-04-05T05:42:51;101272.66;;;6.41;47.01
41218;BME280;26950;50.960;7.138;2023-04-05T05:45:17;101269.28;;;6.42;47.04
41218;BME280;26950;50.960;7.138;2023-04-05T05:47:45;101278.34;;;6.48;46.45
41218;BME280;26950;50.960;7.138;2023-04-05T05:50:12;101269.34;;;6.60;46.85
41218;BME280;26950;50.960;7.138;2023-04-05T05:52:40;101274.53;;;6.74;45.14
41218;BME280;26950;50.960;7.138;2023-04-05T05:55:07;101267.91;;;6.97;45.83
41218;BME280;26950;50.960;7.138;2023-04-05T05:57:34;101268.13;;;7.18;45.46
41218;BME280;26950;50.960;7.138;2023-04-05T06:00:00;101268.03;;;7.33;44.74
41218;BME280;26950;50.960;7.138;2023-04-05T06:02:28;101275.97;;;7.52;44.43
41218;BME280;26950;50.960;7.138;2023-04-05T06:04:58;101278.53;;;7.69;44.26
41218;BME280;26950;50.960;7.138;2023-04-05T06:07:26;101279.28;;;7.84;43.82
41218;BME280;26950;50.960;7.138;2023-04-05T06:09:52;101279.00;;;7.96;43.69
41218;BME280;26950;50.960;7.138;2023-04-05T06:12:19;101276.38;;;7.96;43.93
41218;BME280;26950;50.960;7.138;2023-04-05T06:14:46;101283.63;;;8.01;43.18
41218;BME280;26950;50.960;7.138;2023-04-05T06:17:12;101277.63;;;8.04;42.92
41218;BME280;26950;50.960;7.138;2023-04-05T06:19:39;101284.34;;;8.17;42.71
41218;BME280;26950;50.960;7.138;2023-04-05T06:22:07;101273.47;;;8.25;42.69
41218;BME280;26950;50.960;7.138;2023-04-05T06:24:33;101276.97;;;8.08;41.30
41218;BME280;26950;50.960;7.138;2023-04-05T06:27:00;101278.03;;;8.11;41.46
41218;BME280;26950;50.960;7.138;2023-04-05T06:29:26;101278.88;;;7.93;41.00
41218;BME280;26950;50.960;7.138;2023-04-05T06:31:54;101282.50;;;8.14;40.92
41218;BME280;26950;50.960;7.138;2023-04-05T06:34:20;101279.28;;;7.84;40.88
41218;BME280;26950;50.960;7.138;2023-04-05T06:36:47;101275.56;;;7.97;40.51
41218;BME280;26950;50.960;7.138;2023-04-05T06:39:14;101273.75;;;8.31;39.86
41218;BME280;26950;50.960;7.138;2023-04-05T06:41:41;101275.25;;;8.26;39.50
41218;BME280;26950;50.960;7.138;2023-04-05T06:44:08;101275.53;;;8.32;39.61
41218;BME280;26950;50.960;7.138;2023-04-05T06:46:34;101274.56;;;8.48;39.38
41218;BME280;26950;50.960;7.138;2023-04-05T06:49:00;101273.63;;;8.65;39.12
41218;BME280;26950;50.960;7.138;2023-04-05T06:51:27;101277.94;;;8.46;38.76
41218;BME280;26950;50.960;7.138;2023-04-05T06:53:54;101277.63;;;8.22;39.54
41218;BME280;26950;50.960;7.138;2023-04-05T06:56:21;101267.75;;;8.34;39.44
41218;BME280;26950;50.960;7.138;2023-04-05T06:58:48;101271.91;;;8.66;39.15
41218;BME280;26950;50.960;7.138;2023-04-05T07:01:15;101279.22;;;8.18;39.65
41218;BME280;26950;50.960;7.138;2023-04-05T07:03:41;101284.06;;;8.10;39.44
41218;BME280;26950;50.960;7.138;2023-04-05T07:06:08;101271.81;;;8.45;39.51
41218;BME280;26950;50.960;7.138;2023-04-05T07:08:36;101275.44;;;8.11;39.62
41218;BME280;26950;50.960;7.138;2023-04-05T07:11:02;101273.06;;;8.53;39.07
41218;BME280;26950;50.960;7.138;2023-04-05T07:13:31;101269.22;;;8.84;38.49
41218;BME280;26950;50.960;7.138;2023-04-05T07:16:01;101269.78;;;8.77;38.60
41218;BME280;26950;50.960;7.138;2023-04-05T07:18:28;101272.09;;;8.33;39.01
41218;BME280;26950;50.960;7.138;2023-04-05T07:20:56;101268.53;;;7.96;39.02
41218;BME280;26950;50.960;7.138;2023-04-05T07:23:26;101262.25;;;8.28;39.26
41218;BME280;26950;50.960;7.138;2023-04-05T07:25:53;101266.34;;;8.23;39.16
41218;BME280;26950;50.960;7.138;2023-04-05T07:28:19;101262.72;;;8.37;38.92
41218;BME280;26950;50.960;7.138;2023-04-05T07:30:47;101267.25;;;8.23;38.99
41218;BME280;26950;50.960;7.138;2023-04-05T07:33:14;101254.75;;;8.73;38.71
41218;BME280;26950;50.960;7.138;2023-04-05T07:35:40;101262.56;;;8.90;38.15
41218;BME280;26950;50.960;7.138;2023-04-05T07:38:07;101256.38;;;8.88;38.59
41218;BME280;26950;50.960;7.138;2023-04-05T07:40:35;101252.63;;;9.03;38.53
41218;BME280;26950;50.960;7.138;2023-04-05T07:43:02;101253.97;;;8.74;38.60
41218;BME280;26950;50.960;7.138;2023-04-05T07:45:28;101263.28;;;9.48;38.02
41218;BME280;26950;50.960;7.138;2023-04-05T07:47:56;101262.88;;;9.17;38.20
41218;BME280;26950;50.960;7.138;2023-04-05T07:50:22;101255.38;;;9.88;37.22
41218;BME280;26950;50.960;7.138;2023-04-05T07:52:49;101253.91;;;9.94;37.17
41218;BME280;26950;50.960;7.138;2023-04-05T07:55:15;101255.16;;;10.25;37.38
41218;BME280;26950;50.960;7.138;2023-04-05T07:57:42;101245.75;;;11.00;36.56
41218;BME280;26950;50.960;7.138;2023-04-05T08:00:09;101246.34;;;11.17;36.08
41218;BME280;26950;50.960;7.138;2023-04-05T08:02:37;101253.28;;;10.67;35.16
41218;BME280;26950;50.960;7.138;2023-04-05T08:05:05;101254.47;;;10.31;35.63
41218;BME280;26950;50.960;7.138;2023-04-05T08:07:32;101253.56;;;10.51;36.10
41218;BME280;26950;50.960;7.138;2023-04-05T08:09:59;101253.78;;;11.05;34.81
41218;BME280;26950;50.960;7.138;2023-04-05T08:12:25;101249.22;;;11.25;34.70
41218;BME280;26950;50.960;7.138;2023-04-05T08:14:52;101250.63;;;11.14;34.08
41218;BME280;26950;50.960;7.138;2023-04-05T08:17:19;101235.84;;;12.22;33.26
41218;BME280;26950;50.960;7.138;2023-04-05T08:19:45;101223.81;;;12.59;32.99
41218;BME280;26950;50.960;7.138;2023-04-05T08:22:13;101236.72;;;12.21;32.92
41218;BME280;26950;50.960;7.138;2023-04-05T08:24:40;101230.19;;;12.67;32.91
41218;BME280;26950;50.960;7.138;2023-04-05T08:27:07;101231.91;;;12.96;31.93
41218;BME280;26950;50.960;7.138;2023-04-05T08:29:33;101237.84;;;13.53;31.28
41218;BME280;26950;50.960;7.138;2023-04-05T08:32:00;101229.03;;;14.26;31.17
41218;BME280;26950;50.960;7.138;2023-04-05T08:34:26;101233.66;;;13.97;30.79
41218;BME280;26950;50.960;7.138;2023-04-05T08:36:56;101233.69;;;13.98;29.80
41218;BME280;26950;50.960;7.138;2023-04-05T08:39:24;101237.06;;;14.30;29.38
41218;BME280;26950;50.960;7.138;2023-04-05T08:41:57;101233.38;;;15.52;28.08
41218;BME280;26950;50.960;7.138;2023-04-05T08:44:29;101228.38;;;15.19;28.20
41218;BME280;26950;50.960;7.138;2023-04-05T08:46:57;101223.28;;;15.28;28.42
41218;BME280;26950;50.960;7.138;2023-04-05T08:49:24;101221.09;;;15.54;27.75
41218;BME280;26950;50.960;7.138;2023-04-05T08:51:50;101216.31;;;14.88;28.57
41218;BME280;26950;50.960;7.138;2023-04-05T08:54:18;101220.41;;;15.16;28.48
41218;BME280;26950;50.960;7.138;2023-04-05T08:56:47;101216.75;;;15.09;27.88
41218;BME280;26950;50.960;7.138;2023-04-05T08:59:15;101205.47;;;16.26;27.03
41218;BME280;26950;50.960;7.138;2023-04-05T09:01:44;101208.44;;;16.49;27.19
41218;BME280;26950;50.960;7.138;2023-04-05T09:04:16;101211.50;;;16.15;26.27
41218;BME280;26950;50.960;7.138;2023-04-05T09:06:43;101206.75;;;15.95;26.89
41218;BME280;26950;50.960;7.138;2023-04-05T09:09:10;101214.03;;;14.63;28.39
41218;BME280;26950;50.960;7.138;2023-04-05T09:11:38;101217.81;;;15.69;27.85
41218;BME280;26950;50.960;7.138;2023-04-05T09:14:07;101212.41;;;16.83;26.12
41218;BME280;26950;50.960;7.138;2023-04-05T09:16:36;101206.75;;;18.42;24.09
41218;BME280;26950;50.960;7.138;2023-04-05T09:19:03;101204.22;;;18.73;23.18
41218;BME280;26950;50.960;7.138;2023-04-05T09:21:59;101209.28;;;17.20;24.41
41218;BME280;26950;50.960;7.138;2023-04-05T09:24:30;101197.91;;;18.51;23.81
41218;BME280;26950;50.960;7.138;2023-04-05T09:27:03;101195.22;;;18.42;23.50
41218;BME280;26950;50.960;7.138;2023-04-05T09:29:31;101195.78;;;17.89;23.49
41218;BME280;26950;50.960;7.138;2023-04-05T09:31:59;101197.34;;;17.67;23.78
41218;BME280;26950;50.960;7.138;2023-04-05T09:34:26;101195.91;;;16.37;25.00
41218;BME280;26950;50.960;7.138;2023-04-05T09:36:53;101195.66;;;16.20;26.04
41218;BME280;26950;50.960;7.138;2023-04-05T09:39:27;101193.13;;;15.69;26.83
41218;BME280;26950;50.960;7.138;2023-04-05T09:42:04;101190.78;;;15.87;27.37
41218;BME280;26950;50.960;7.138;2023-04-05T09:44:53;101179.94;;;16.31;26.16
41218;BME280;26950;50.960;7.138;2023-04-05T09:47:21;101174.00;;;17.27;24.69
41218;BME280;26950;50.960;7.138;2023-04-05T09:49:49;101174.00;;;18.51;24.30
41218;BME280;26950;50.960;7.138;2023-04-05T09:52:20;101175.09;;;19.14;22.56
41218;BME280;26950;50.960;7.138;2023-04-05T09:54:47;101168.56;;;18.28;22.39
41218;BME280;26950;50.960;7.138;2023-04-05T09:57:14;101168.00;;;19.19;22.72
41218;BME280;26950;50.960;7.138;2023-04-05T09:59:42;101169.41;;;21.00;19.90
41218;BME280;26950;50.960;7.138;2023-04-05T10:02:10;101166.09;;;20.40;20.24
41218;BME280;26950;50.960;7.138;2023-04-05T10:04:37;101156.28;;;21.85;19.93
41218;BME280;26950;50.960;7.138;2023-04-05T10:07:05;101172.44;;;19.48;20.78
41218;BME280;26950;50.960;7.138;2023-04-05T10:09:32;101151.50;;;21.16;19.89
41218;BME280;26950;50.960;7.138;2023-04-05T10:12:00;101150.00;;;22.69;19.03
41218;BME280;26950;50.960;7.138;2023-04-05T10:14:27;101146.25;;;23.93;18.48
41218;BME280;26950;50.960;7.138;2023-04-05T10:16:59;101150.53;;;24.89;18.57
41218;BME280;26950;50.960;7.138;2023-04-05T10:19:36;101139.03;;;26.25;15.83
41218;BME280;26950;50.960;7.138;2023-04-05T10:22:11;101132.88;;;25.89;15.97
41218;BME280;26950;50.960;7.138;2023-04-05T10:24:46;101143.94;;;24.63;16.22
41218;BME280;26950;50.960;7.138;2023-04-05T10:27:17;101138.13;;;24.85;16.64
41218;BME280;26950;50.960;7.138;2023-04-05T10:29:53;101136.28;;;25.25;16.45
41218;BME280;26950;50.960;7.138;2023-04-05T10:32:29;101144.88;;;23.69;16.51
41218;BME280;26950;50.960;7.138;2023-04-05T10:35:07;101140.25;;;23.27;17.38
41218;BME280;26950;50.960;7.138;2023-04-05T10:37:53;101135.84;;;22.59;18.01
41218;BME280;26950;50.960;7.138;2023-04-05T10:40:23;101136.63;;;22.68;18.91
41218;BME280;26950;50.960;7.138;2023-04-05T10:42:54;101139.88;;;21.31;18.86
41218;BME280;26950;50.960;7.138;2023-04-05T10:45:22;101146.28;;;20.98;19.33
41218;BME280;26950;50.960;7.138;2023-04-05T10:47:53;101125.50;;;21.43;19.89
41218;BME280;26950;50.960;7.138;2023-04-05T10:50:23;101131.97;;;21.10;20.02
41218;BME280;26950;50.960;7.138;2023-04-05T10:52:50;101132.38;;;20.32;20.88
41218;BME280;26950;50.960;7.138;2023-04-05T10:55:17;101128.06;;;19.91;21.93
41218;BME280;26950;50.960;7.138;2023-04-05T10:57:44;101131.47;;;20.34;20.71
41218;BME280;26950;50.960;7.138;2023-04-05T11:00:13;101130.75;;;19.79;21.06
41218;BME280;26950;50.960;7.138;2023-04-05T11:02:40;101123.69;;;19.49;21.24
41218;BME280;26950;50.960;7.138;2023-04-05T11:05:29;101123.50;;;18.57;22.08
41218;BME280;26950;50.960;7.138;2023-04-05T11:07:59;101125.13;;;18.21;21.99
41218;BME280;26950;50.960;7.138;2023-04-05T11:10:28;101132.00;;;16.81;23.50
41218;BME280;26950;50.960;7.138;2023-04-05T11:13:06;101116.13;;;17.89;22.95
41218;BME280;26950;50.960;7.138;2023-04-05T11:15:33;101121.47;;;17.93;22.70
41218;BME280;26950;50.960;7.138;2023-04-05T11:18:10;101125.13;;;18.21;22.81
41218;BME280;26950;50.960;7.138;2023-04-05T11:20:46;101111.69;;;17.86;22.70
41218;BME280;26950;50.960;7.138;2023-04-05T11:23:14;101105.69;;;18.31;22.86
41218;BME280;26950;50.960;7.138;2023-04-05T11:25:46;101104.97;;;18.69;22.63
41218;BME280;26950;50.960;7.138;2023-04-05T11:28:23;101104.13;;;19.14;22.42
41218;BME280;26950;50.960;7.138;2023-04-05T11:30:51;101095.25;;;19.35;22.47
41218;BME280;26950;50.960;7.138;2023-04-05T11:33:55;101102.47;;;17.40;22.93
41218;BME280;26950;50.960;7.138;2023-04-05T11:36:36;101100.25;;;18.02;22.41
41218;BME280;26950;50.960;7.138;2023-04-05T11:39:22;101098.75;;;18.70;22.19
41218;BME280;26950;50.960;7.138;2023-04-05T11:41:54;101095.25;;;18.86;22.39
41218;BME280;26950;50.960;7.138;2023-04-05T11:44:21;101093.91;;;17.77;23.34
41218;BME280;26950;50.960;7.138;2023-04-05T11:46:48;101091.59;;;18.42;23.21
41218;BME280;26950;50.960;7.138;2023-04-05T11:49:15;101084.94;;;17.60;23.68
41218;BME280;26950;50.960;7.138;2023-04-05T11:51:43;101088.81;;;18.19;23.25
41218;BME280;26950;50.960;7.138;2023-04-05T11:54:12;101093.56;;;17.35;24.21
41218;BME280;26950;50.960;7.138;2023-04-05T11:56:39;101087.00;;;16.90;23.77
41218;BME280;26950;50.960;7.138;2023-04-05T11:59:06;101085.16;;;16.80;24.61
41218;BME280;26950;50.960;7.138;2023-04-05T12:01:32;101082.44;;;16.01;24.79
41218;BME280;26950;50.960;7.138;2023-04-05T12:03:59;101079.56;;;15.26;25.81
41218;BME280;26950;50.960;7.138;2023-04-05T12:06:25;101077.38;;;15.57;25.94
41218;BME280;26950;50.960;7.138;2023-04-05T12:08:53;101074.22;;;15.22;25.77
41218;BME280;26950;50.960;7.138;2023-04-05T12:11:23;101074.88;;;15.08;25.82
41218;BME280;26950;50.960;7.138;2023-04-05T12:13:52;101071.75;;;15.93;25.75
41218;BME280;26950;50.960;7.138;2023-04-05T12:16:19;101065.88;;;15.53;25.89
41218;BME280;26950;50.960;7.138;2023-04-05T12:18:52;101066.69;;;16.11;26.11
41218;BME280;26950;50.960;7.138;2023-04-05T12:21:19;101065.00;;;16.18;26.57
41218;BME280;26950;50.960;7.138;2023-04-05T12:23:46;101065.97;;;16.25;25.43
41218;BME280;26950;50.960;7.138;2023-04-05T12:26:14;101070.69;;;15.79;25.66
41218;BME280;26950;50.960;7.138;2023-04-05T12:28:50;101058.44;;;16.60;25.57
41218;BME280;26950;50.960;7.138;2023-04-05T12:31:34;101054.31;;;16.88;24.87
41218;BME280;26950;50.960;7.138;2023-04-05T12:34:00;101049.16;;;17.06;25.11
41218;BME280;26950;50.960;7.138;2023-04-05T12:36:27;101043.06;;;17.16;25.18
41218;BME280;26950;50.960;7.138;2023-04-05T12:38:53;101050.66;;;15.99;25.45
41218;BME280;26950;50.960;7.138;2023-04-05T12:41:27;101041.50;;;15.15;25.93
41218;BME280;26950;50.960;7.138;2023-04-05T12:43:54;101050.38;;;14.67;26.05
41218;BME280;26950;50.960;7.138;2023-04-05T12:46:37;101044.19;;;15.77;25.27
41218;BME280;26950;50.960;7.138;2023-04-05T12:49:03;101036.78;;;16.22;25.17
41218;BME280;26950;50.960;7.138;2023-04-05T12:51:30;101033.47;;;16.38;25.26
41218;BME280;26950;50.960;7.138;2023-04-05T12:54:00;101030.06;;;16.51;25.10
41218;BME280;26950;50.960;7.138;2023-04-05T12:56:28;101034.41;;;16.43;24.76
41218;BME280;26950;50.960;7.138;2023-04-05T12:58:55;101009.41;;;16.18;25.39
41218;BME280;26950;50.960;7.138;2023-04-05T13:01:22;101027.41;;;16.48;26.07
41218;BME280;26950;50.960;7.138;2023-04-05T13:03:48;101024.47;;;16.24;25.55
41218;BME280;26950;50.960;7.138;2023-04-05T13:06:15;101014.16;;;16.51;25.64